sensor_id;sensor_type;location;lat;lon;timestamp;temperature;humidity
42187;DHT22;27858;51.414;0.018;2024-01-30T00:00:20;12.20;99.90
42187;DHT22;27858;51.414;0.018;2024-01-30T00:02:47;12.10;99.90
42187;DHT22;27858;51.414;0.018;2024-01-30T00:05:14;12.10;99.90
42187;DHT22;27858;51.414;0.018;2024-01-30T00:07:41;12.10;99.90
42187;DHT22;27858;51.414;0.018;2024-01-30T00:10:08;12.20;99.90
42187;DHT22;27858;51.414;0.018;2024-01-30T00:12:35;12.30;99.90
42187;DHT22;27858;51.414;0.018;2024-01-30T00:15:02;12.30;99.90
42187;DHT22;27858;51.414;0.018;2024-01-30T00:17:31;12.30;99.90
42187;DHT22;27858;51.414;0.018;2024-01-30T00:19:58;12.40;99.90
42187;DHT22;27858;51.414;0.018;2024-01-30T00:22:25;12.40;99.90
42187;DHT22;27858;51.414;0.018;2024-01-30T00:24:52;12.50;99.90
42187;DHT22;27858;51.414;0.018;2024-01-30T00:27:18;12.40;99.90
42187;DHT22;27858;51.414;0.018;2024-01-30T00:29:45;12.40;99.90
42187;DHT22;27858;51.414;0.018;2024-01-30T00:32:12;12.50;99.90
42187;DHT22;27858;51.414;0.018;2024-01-30T00:34:39;12.40;99.90
42187;DHT22;27858;51.414;0.018;2024-01-30T00:37:06;12.60;99.90
42187;DHT22;27858;51.414;0.018;2024-01-30T00:39:32;12.50;99.90
42187;DHT22;27858;51.414;0.018;2024-01-30T00:41:59;12.60;99.90
42187;DHT22;27858;51.414;0.018;2024-01-30T00:44:26;12.50;99.90
42187;DHT22;27858;51.414;0.018;2024-01-30T00:46:53;12.60;99.90
42187;DHT22;27858;51.414;0.018;2024-01-30T00:49:20;12.50;99.90
42187;DHT22;27858;51.414;0.018;2024-01-30T00:51:47;12.60;99.90
42187;DHT22;27858;51.414;0.018;2024-01-30T00:54:14;12.70;99.90
42187;DHT22;27858;51.414;0.018;2024-01-30T00:56:41;12.50;99.90
42187;DHT22;27858;51.414;0.018;2024-01-30T00:59:07;12.50;99.90
42187;DHT22;27858;51.414;0.018;2024-01-30T01:01:34;12.60;99.90
42187;DHT22;27858;51.414;0.018;2024-01-30T01:04:01;12.50;99.90
42187;DHT22;27858;51.414;0.018;2024-01-30T01:06:28;12.60;99.90
42187;DHT22;27858;51.414;0.018;2024-01-30T01:08:55;12.60;99.90
42187;DHT22;27858;51.414;0.018;2024-01-30T01:11:22;12.60;99.90
42187;DHT22;27858;51.414;0.018;2024-01-30T01:13:49;12.50;99.90
42187;DHT22;27858;51.414;0.018;2024-01-30T01:16:16;12.40;99.90
42187;DHT22;27858;51.414;0.018;2024-01-30T01:18:42;12.30;99.90
42187;DHT22;27858;51.414;0.018;2024-01-30T01:21:09;12.40;99.90
42187;DHT22;27858;51.414;0.018;2024-01-30T01:23:36;12.30;99.90
42187;DHT22;27858;51.414;0.018;2024-01-30T01:26:03;12.20;99.90
42187;DHT22;27858;51.414;0.018;2024-01-30T01:28:30;12.20;99.90
42187;DHT22;27858;51.414;0.018;2024-01-30T01:30:56;12.20;99.90
42187;DHT22;27858;51.414;0.018;2024-01-30T01:33:27;12.20;99.90
42187;DHT22;27858;51.414;0.018;2024-01-30T01:35:54;12.10;99.90
42187;DHT22;27858;51.414;0.018;2024-01-30T01:38:21;12.20;99.90
42187;DHT22;27858;51.414;0.018;2024-01-30T01:40:48;12.10;99.90
42187;DHT22;27858;51.414;0.018;2024-01-30T01:43:15;12.10;99.90
42187;DHT22;27858;51.414;0.018;2024-01-30T01:45:42;12.10;99.90
42187;DHT22;27858;51.414;0.018;2024-01-30T01:48:08;12.10;99.90
42187;DHT22;27858;51.414;0.018;2024-01-30T01:50:36;12.00;99.90
42187;DHT22;27858;51.414;0.018;2024-01-30T01:53:03;12.00;99.90
42187;DHT22;27858;51.414;0.018;2024-01-30T01:55:31;11.80;99.90
42187;DHT22;27858;51.414;0.018;2024-01-30T01:57:59;11.80;99.90
42187;DHT22;27858;51.414;0.018;2024-01-30T02:00:26;11.70;99.90
42187;DHT22;27858;51.414;0.018;2024-01-30T02:02:54;11.70;99.90
42187;DHT22;27858;51.414;0.018;2024-01-30T02:05:21;11.60;99.90
42187;DHT22;27858;51.414;0.018;2024-01-30T02:07:48;11.50;99.90
42187;DHT22;27858;51.414;0.018;2024-01-30T02:10:17;11.40;99.90
42187;DHT22;27858;51.414;0.018;2024-01-30T02:12:44;11.40;99.90
42187;DHT22;27858;51.414;0.018;2024-01-30T02:15:13;11.40;99.90
42187;DHT22;27858;51.414;0.018;2024-01-30T02:17:40;11.30;99.90
42187;DHT22;27858;51.414;0.018;2024-01-30T02:20:07;11.20;99.90
42187;DHT22;27858;51.414;0.018;2024-01-30T02:22:36;11.20;99.90
42187;DHT22;27858;51.414;0.018;2024-01-30T02:25:04;11.20;99.90
42187;DHT22;27858;51.414;0.018;2024-01-30T02:27:31;11.20;99.90
42187;DHT22;27858;51.414;0.018;2024-01-30T02:29:58;11.00;99.90
42187;DHT22;27858;51.414;0.018;2024-01-30T02:32:25;11.10;99.90
42187;DHT22;27858;51.414;0.018;2024-01-30T02:34:52;11.10;99.90
42187;DHT22;27858;51.414;0.018;2024-01-30T02:37:19;11.00;99.90
42187;DHT22;27858;51.414;0.018;2024-01-30T02:39:46;11.00;99.90
42187;DHT22;27858;51.414;0.018;2024-01-30T02:42:13;10.80;99.90
42187;DHT22;27858;51.414;0.018;2024-01-30T02:44:39;11.00;99.90
42187;DHT22;27858;51.414;0.018;2024-01-30T02:47:06;10.80;99.90
42187;DHT22;27858;51.414;0.018;2024-01-30T02:49:33;10.70;99.90
42187;DHT22;27858;51.414;0.018;2024-01-30T02:52:00;10.80;99.90
42187;DHT22;27858;51.414;0.018;2024-01-30T02:54:27;10.80;99.90
42187;DHT22;27858;51.414;0.018;2024-01-30T02:56:54;10.80;99.90
42187;DHT22;27858;51.414;0.018;2024-01-30T02:59:20;10.70;99.90
42187;DHT22;27858;51.414;0.018;2024-01-30T03:01:47;10.70;99.90
42187;DHT22;27858;51.414;0.018;2024-01-30T03:04:14;10.70;99.90
42187;DHT22;27858;51.414;0.018;2024-01-30T03:06:45;10.60;99.90
42187;DHT22;27858;51.414;0.018;2024-01-30T03:09:16;10.70;99.90
42187;DHT22;27858;51.414;0.018;2024-01-30T03:11:43;10.60;99.90
42187;DHT22;27858;51.414;0.018;2024-01-30T03:14:10;10.60;99.90
42187;DHT22;27858;51.414;0.018;2024-01-30T03:16:39;10.50;99.90
42187;DHT22;27858;51.414;0.018;2024-01-30T03:19:07;10.50;99.90
42187;DHT22;27858;51.414;0.018;2024-01-30T03:21:36;10.70;99.90
42187;DHT22;27858;51.414;0.018;2024-01-30T03:24:04;10.60;99.90
42187;DHT22;27858;51.414;0.018;2024-01-30T03:26:30;10.50;99.90
42187;DHT22;27858;51.414;0.018;2024-01-30T03:28:57;10.60;99.90
42187;DHT22;27858;51.414;0.018;2024-01-30T03:31:24;10.50;99.90
42187;DHT22;27858;51.414;0.018;2024-01-30T03:33:51;10.60;99.90
42187;DHT22;27858;51.414;0.018;2024-01-30T03:36:18;10.50;99.90
42187;DHT22;27858;51.414;0.018;2024-01-30T03:38:45;10.60;99.90
42187;DHT22;27858;51.414;0.018;2024-01-30T03:41:12;10.50;99.90
42187;DHT22;27858;51.414;0.018;2024-01-30T03:43:38;10.60;99.90
42187;DHT22;27858;51.414;0.018;2024-01-30T03:46:05;10.60;99.90
42187;DHT22;27858;51.414;0.018;2024-01-30T03:48:32;10.50;99.90
42187;DHT22;27858;51.414;0.018;2024-01-30T03:50:59;10.50;99.90
42187;DHT22;27858;51.414;0.018;2024-01-30T03:53:27;10.30;99.90
42187;DHT22;27858;51.414;0.018;2024-01-30T03:55:53;10.40;99.90
42187;DHT22;27858;51.414;0.018;2024-01-30T03:58:20;10.20;99.90
42187;DHT22;27858;51.414;0.018;2024-01-30T04:00:47;10.20;99.90
42187;DHT22;27858;51.414;0.018;2024-01-30T04:03:14;10.20;99.90
42187;DHT22;27858;51.414;0.018;2024-01-30T04:05:42;10.40;99.90
42187;DHT22;27858;51.414;0.018;2024-01-30T04:08:09;10.30;99.90
42187;DHT22;27858;51.414;0.018;2024-01-30T04:10:36;10.30;99.90
42187;DHT22;27858;51.414;0.018;2024-01-30T04:13:03;10.40;99.90
42187;DHT22;27858;51.414;0.018;2024-01-30T04:15:30;10.30;99.90
42187;DHT22;27858;51.414;0.018;2024-01-30T04:17:58;10.30;99.90
42187;DHT22;27858;51.414;0.018;2024-01-30T04:20:26;10.10;99.90
42187;DHT22;27858;51.414;0.018;2024-01-30T04:22:53;10.20;99.90
42187;DHT22;27858;51.414;0.018;2024-01-30T04:25:20;10.20;99.90
42187;DHT22;27858;51.414;0.018;2024-01-30T04:27:47;10.10;99.90
42187;DHT22;27858;51.414;0.018;2024-01-30T04:30:14;10.10;99.90
42187;DHT22;27858;51.414;0.018;2024-01-30T04:32:42;10.10;99.90
42187;DHT22;27858;51.414;0.018;2024-01-30T04:35:09;10.00;99.90
42187;DHT22;27858;51.414;0.018;2024-01-30T04:37:38;10.00;99.90
42187;DHT22;27858;51.414;0.018;2024-01-30T04:40:05;9.90;99.90
42187;DHT22;27858;51.414;0.018;2024-01-30T04:42:32;10.00;99.90
42187;DHT22;27858;51.414;0.018;2024-01-30T04:44:59;10.00;99.90
42187;DHT22;27858;51.414;0.018;2024-01-30T04:47:26;9.80;99.90
42187;DHT22;27858;51.414;0.018;2024-01-30T04:49:53;9.80;99.90
42187;DHT22;27858;51.414;0.018;2024-01-30T04:52:20;10.00;99.90
42187;DHT22;27858;51.414;0.018;2024-01-30T04:54:47;9.90;99.90
42187;DHT22;27858;51.414;0.018;2024-01-30T04:57:14;10.00;99.90
42187;DHT22;27858;51.414;0.018;2024-01-30T04:59:41;9.80;99.90
42187;DHT22;27858;51.414;0.018;2024-01-30T05:02:08;9.90;99.90
42187;DHT22;27858;51.414;0.018;2024-01-30T05:04:35;10.00;99.90
42187;DHT22;27858;51.414;0.018;2024-01-30T05:07:02;10.00;99.90
42187;DHT22;27858;51.414;0.018;2024-01-30T05:09:29;9.80;99.90
42187;DHT22;27858;51.414;0.018;2024-01-30T05:11:55;10.00;99.90
42187;DHT22;27858;51.414;0.018;2024-01-30T05:14:22;9.90;99.90
42187;DHT22;27858;51.414;0.018;2024-01-30T05:16:49;9.90;99.90
42187;DHT22;27858;51.414;0.018;2024-01-30T05:19:16;10.00;99.90
42187;DHT22;27858;51.414;0.018;2024-01-30T05:21:44;10.10;99.90
42187;DHT22;27858;51.414;0.018;2024-01-30T05:24:11;9.90;99.90
42187;DHT22;27858;51.414;0.018;2024-01-30T05:26:38;10.10;99.90
42187;DHT22;27858;51.414;0.018;2024-01-30T05:29:05;10.10;99.90
42187;DHT22;27858;51.414;0.018;2024-01-30T05:31:32;9.90;99.90
42187;DHT22;27858;51.414;0.018;2024-01-30T05:33:59;9.90;99.90
42187;DHT22;27858;51.414;0.018;2024-01-30T05:36:26;9.90;99.90
42187;DHT22;27858;51.414;0.018;2024-01-30T05:38:53;10.10;99.90
42187;DHT22;27858;51.414;0.018;2024-01-30T05:41:20;10.00;99.90
42187;DHT22;27858;51.414;0.018;2024-01-30T05:43:50;9.90;99.90
42187;DHT22;27858;51.414;0.018;2024-01-30T05:46:17;10.00;99.90
42187;DHT22;27858;51.414;0.018;2024-01-30T05:48:45;9.90;99.90
42187;DHT22;27858;51.414;0.018;2024-01-30T05:51:12;10.00;99.90
42187;DHT22;27858;51.414;0.018;2024-01-30T05:53:39;9.90;99.90
42187;DHT22;27858;51.414;0.018;2024-01-30T05:56:06;10.00;99.90
42187;DHT22;27858;51.414;0.018;2024-01-30T05:58:34;10.00;99.90
42187;DHT22;27858;51.414;0.018;2024-01-30T06:01:01;10.00;99.90
42187;DHT22;27858;51.414;0.018;2024-01-30T06:03:28;9.80;99.90
42187;DHT22;27858;51.414;0.018;2024-01-30T06:05:55;9.80;99.90
42187;DHT22;27858;51.414;0.018;2024-01-30T06:08:21;9.70;99.90
42187;DHT22;27858;51.414;0.018;2024-01-30T06:10:48;9.50;99.90
42187;DHT22;27858;51.414;0.018;2024-01-30T06:13:15;9.40;99.90
42187;DHT22;27858;51.414;0.018;2024-01-30T06:15:42;9.40;99.90
42187;DHT22;27858;51.414;0.018;2024-01-30T06:18:09;9.40;99.90
42187;DHT22;27858;51.414;0.018;2024-01-30T06:20:36;9.40;99.90
42187;DHT22;27858;51.414;0.018;2024-01-30T06:23:03;9.30;99.90
42187;DHT22;27858;51.414;0.018;2024-01-30T06:25:30;9.30;99.90
42187;DHT22;27858;51.414;0.018;2024-01-30T06:27:57;9.10;99.90
42187;DHT22;27858;51.414;0.018;2024-01-30T06:30:24;9.20;99.90
42187;DHT22;27858;51.414;0.018;2024-01-30T06:32:51;9.10;99.90
42187;DHT22;27858;51.414;0.018;2024-01-30T06:35:18;9.00;99.90
42187;DHT22;27858;51.414;0.018;2024-01-30T06:37:44;9.00;99.90
42187;DHT22;27858;51.414;0.018;2024-01-30T06:40:12;8.80;99.90
42187;DHT22;27858;51.414;0.018;2024-01-30T06:42:39;8.90;99.90
42187;DHT22;27858;51.414;0.018;2024-01-30T06:45:06;8.80;99.90
42187;DHT22;27858;51.414;0.018;2024-01-30T06:47:34;8.70;99.90
42187;DHT22;27858;51.414;0.018;2024-01-30T06:50:01;8.60;99.90
42187;DHT22;27858;51.414;0.018;2024-01-30T06:52:29;8.60;99.90
42187;DHT22;27858;51.414;0.018;2024-01-30T06:54:56;8.60;99.90
42187;DHT22;27858;51.414;0.018;2024-01-30T06:57:23;8.70;99.90
42187;DHT22;27858;51.414;0.018;2024-01-30T06:59:49;8.50;99.90
42187;DHT22;27858;51.414;0.018;2024-01-30T07:02:16;8.50;99.90
42187;DHT22;27858;51.414;0.018;2024-01-30T07:04:43;8.60;99.90
42187;DHT22;27858;51.414;0.018;2024-01-30T07:07:13;8.60;99.90
42187;DHT22;27858;51.414;0.018;2024-01-30T07:09:42;8.60;99.90
42187;DHT22;27858;51.414;0.018;2024-01-30T07:12:11;8.60;99.90
42187;DHT22;27858;51.414;0.018;2024-01-30T07:14:38;8.70;99.90
42187;DHT22;27858;51.414;0.018;2024-01-30T07:17:05;8.60;99.90
42187;DHT22;27858;51.414;0.018;2024-01-30T07:19:32;8.70;99.90
42187;DHT22;27858;51.414;0.018;2024-01-30T07:22:00;8.70;99.90
42187;DHT22;27858;51.414;0.018;2024-01-30T07:24:27;8.70;99.90
42187;DHT22;27858;51.414;0.018;2024-01-30T07:26:53;8.70;99.90
42187;DHT22;27858;51.414;0.018;2024-01-30T07:29:20;8.70;99.90
42187;DHT22;27858;51.414;0.018;2024-01-30T07:31:48;8.60;99.90
42187;DHT22;27858;51.414;0.018;2024-01-30T07:34:15;8.70;99.90
42187;DHT22;27858;51.414;0.018;2024-01-30T07:36:42;8.60;99.90
42187;DHT22;27858;51.414;0.018;2024-01-30T07:39:09;8.60;99.90
42187;DHT22;27858;51.414;0.018;2024-01-30T07:41:36;8.70;99.90
42187;DHT22;27858;51.414;0.018;2024-01-30T07:44:03;8.60;99.90
42187;DHT22;27858;51.414;0.018;2024-01-30T07:46:31;8.60;99.90
42187;DHT22;27858;51.414;0.018;2024-01-30T07:48:58;8.60;99.90
42187;DHT22;27858;51.414;0.018;2024-01-30T07:51:25;8.60;99.90
42187;DHT22;27858;51.414;0.018;2024-01-30T07:53:52;8.60;99.90
42187;DHT22;27858;51.414;0.018;2024-01-30T07:56:19;8.70;99.90
42187;DHT22;27858;51.414;0.018;2024-01-30T07:58:45;8.60;99.90
42187;DHT22;27858;51.414;0.018;2024-01-30T08:01:14;8.70;99.90
42187;DHT22;27858;51.414;0.018;2024-01-30T08:03:41;8.60;99.90
42187;DHT22;27858;51.414;0.018;2024-01-30T08:06:09;8.70;99.90
42187;DHT22;27858;51.414;0.018;2024-01-30T08:08:36;8.60;99.90
42187;DHT22;27858;51.414;0.018;2024-01-30T08:11:04;8.70;99.90
42187;DHT22;27858;51.414;0.018;2024-01-30T08:13:31;8.70;99.90
42187;DHT22;27858;51.414;0.018;2024-01-30T08:15:58;8.70;99.90
42187;DHT22;27858;51.414;0.018;2024-01-30T08:18:25;8.70;99.90
42187;DHT22;27858;51.414;0.018;2024-01-30T08:20:51;8.70;99.90
42187;DHT22;27858;51.414;0.018;2024-01-30T08:23:18;8.70;99.90
42187;DHT22;27858;51.414;0.018;2024-01-30T08:25:45;8.70;99.90
42187;DHT22;27858;51.414;0.018;2024-01-30T08:28:12;8.60;99.90
42187;DHT22;27858;51.414;0.018;2024-01-30T08:30:39;8.70;99.90
42187;DHT22;27858;51.414;0.018;2024-01-30T08:33:06;8.60;99.90
42187;DHT22;27858;51.414;0.018;2024-01-30T08:35:33;8.70;99.90
42187;DHT22;27858;51.414;0.018;2024-01-30T08:38:00;8.60;99.90
42187;DHT22;27858;51.414;0.018;2024-01-30T08:40:27;8.70;99.90
42187;DHT22;27858;51.414;0.018;2024-01-30T08:42:55;8.60;99.90
42187;DHT22;27858;51.414;0.018;2024-01-30T08:45:22;8.60;99.90
42187;DHT22;27858;51.414;0.018;2024-01-30T08:47:49;8.70;99.90
42187;DHT22;27858;51.414;0.018;2024-01-30T08:50:16;8.70;99.90
42187;DHT22;27858;51.414;0.018;2024-01-30T08:52:43;8.80;99.90
42187;DHT22;27858;51.414;0.018;2024-01-30T08:55:13;8.70;99.90
42187;DHT22;27858;51.414;0.018;2024-01-30T08:57:40;8.80;99.90
42187;DHT22;27858;51.414;0.018;2024-01-30T09:00:07;8.80;99.90
42187;DHT22;27858;51.414;0.018;2024-01-30T09:02:35;8.70;99.90
42187;DHT22;27858;51.414;0.018;2024-01-30T09:05:03;8.70;99.90
42187;DHT22;27858;51.414;0.018;2024-01-30T09:07:30;8.80;99.90
42187;DHT22;27858;51.414;0.018;2024-01-30T09:09:57;8.70;99.90
42187;DHT22;27858;51.414;0.018;2024-01-30T09:12:24;8.70;99.90
42187;DHT22;27858;51.414;0.018;2024-01-30T09:14:51;8.70;99.90
42187;DHT22;27858;51.414;0.018;2024-01-30T09:17:18;8.70;99.90
42187;DHT22;27858;51.414;0.018;2024-01-30T09:19:45;8.60;99.90
42187;DHT22;27858;51.414;0.018;2024-01-30T09:22:13;8.70;99.90
42187;DHT22;27858;51.414;0.018;2024-01-30T09:24:40;8.60;99.90
42187;DHT22;27858;51.414;0.018;2024-01-30T09:27:07;8.60;99.90
42187;DHT22;27858;51.414;0.018;2024-01-30T09:29:34;8.70;99.90
42187;DHT22;27858;51.414;0.018;2024-01-30T09:32:04;8.80;99.90
42187;DHT22;27858;51.414;0.018;2024-01-30T09:34:32;8.80;99.90
42187;DHT22;27858;51.414;0.018;2024-01-30T09:36:59;8.80;99.90
42187;DHT22;27858;51.414;0.018;2024-01-30T09:39:27;8.90;99.90
42187;DHT22;27858;51.414;0.018;2024-01-30T09:44:45;8.90;99.90
42187;DHT22;27858;51.414;0.018;2024-01-30T09:47:15;9.00;99.90
42187;DHT22;27858;51.414;0.018;2024-01-30T09:49:43;9.00;99.90
42187;DHT22;27858;51.414;0.018;2024-01-30T09:52:11;8.90;99.90
42187;DHT22;27858;51.414;0.018;2024-01-30T09:54:38;8.80;99.90
42187;DHT22;27858;51.414;0.018;2024-01-30T09:57:08;9.00;99.90
42187;DHT22;27858;51.414;0.018;2024-01-30T09:59:36;9.00;99.90
42187;DHT22;27858;51.414;0.018;2024-01-30T10:02:04;9.10;99.90
42187;DHT22;27858;51.414;0.018;2024-01-30T10:04:31;9.00;99.90
42187;DHT22;27858;51.414;0.018;2024-01-30T10:07:01;8.90;99.90
42187;DHT22;27858;51.414;0.018;2024-01-30T10:09:32;8.90;99.90
42187;DHT22;27858;51.414;0.018;2024-01-30T10:12:00;9.00;99.90
42187;DHT22;27858;51.414;0.018;2024-01-30T10:14:27;9.00;99.90
42187;DHT22;27858;51.414;0.018;2024-01-30T10:16:55;8.90;99.90
42187;DHT22;27858;51.414;0.018;2024-01-30T10:19:22;9.00;99.90
42187;DHT22;27858;51.414;0.018;2024-01-30T10:21:49;9.20;99.90
42187;DHT22;27858;51.414;0.018;2024-01-30T10:24:16;9.10;99.90
42187;DHT22;27858;51.414;0.018;2024-01-30T10:26:44;9.00;99.90
42187;DHT22;27858;51.414;0.018;2024-01-30T10:29:11;9.20;99.90
42187;DHT22;27858;51.414;0.018;2024-01-30T10:31:38;9.20;99.90
42187;DHT22;27858;51.414;0.018;2024-01-30T10:34:05;9.20;99.90
42187;DHT22;27858;51.414;0.018;2024-01-30T10:36:46;9.20;99.90
42187;DHT22;27858;51.414;0.018;2024-01-30T10:39:17;9.30;99.90
42187;DHT22;27858;51.414;0.018;2024-01-30T10:41:44;9.40;99.90
42187;DHT22;27858;51.414;0.018;2024-01-30T10:44:19;9.30;99.90
42187;DHT22;27858;51.414;0.018;2024-01-30T10:46:58;9.40;99.90
42187;DHT22;27858;51.414;0.018;2024-01-30T10:49:27;9.40;99.90
42187;DHT22;27858;51.414;0.018;2024-01-30T10:51:55;9.30;99.90
42187;DHT22;27858;51.414;0.018;2024-01-30T10:54:23;9.40;99.90
42187;DHT22;27858;51.414;0.018;2024-01-30T10:56:52;9.30;99.90
42187;DHT22;27858;51.414;0.018;2024-01-30T10:59:20;9.30;99.90
42187;DHT22;27858;51.414;0.018;2024-01-30T11:01:49;9.30;99.90
42187;DHT22;27858;51.414;0.018;2024-01-30T11:04:17;9.30;99.90
42187;DHT22;27858;51.414;0.018;2024-01-30T11:06:44;9.20;99.90
42187;DHT22;27858;51.414;0.018;2024-01-30T11:09:11;9.30;99.90
42187;DHT22;27858;51.414;0.018;2024-01-30T11:12:01;9.20;99.90
42187;DHT22;27858;51.414;0.018;2024-01-30T11:14:30;9.30;99.90
42187;DHT22;27858;51.414;0.018;2024-01-30T11:16:58;9.20;99.90
42187;DHT22;27858;51.414;0.018;2024-01-30T11:19:26;9.30;99.90
42187;DHT22;27858;51.414;0.018;2024-01-30T11:21:54;9.30;99.90
42187;DHT22;27858;51.414;0.018;2024-01-30T11:24:24;9.30;99.90
42187;DHT22;27858;51.414;0.018;2024-01-30T11:27:00;9.30;99.90
42187;DHT22;27858;51.414;0.018;2024-01-30T11:29:29;9.30;99.90
42187;DHT22;27858;51.414;0.018;2024-01-30T11:31:58;9.30;99.90
42187;DHT22;27858;51.414;0.018;2024-01-30T11:34:25;9.30;99.90
42187;DHT22;27858;51.414;0.018;2024-01-30T11:36:56;9.30;99.90
42187;DHT22;27858;51.414;0.018;2024-01-30T11:39:27;9.20;99.90
42187;DHT22;27858;51.414;0.018;2024-01-30T11:41:54;9.20;99.90
42187;DHT22;27858;51.414;0.018;2024-01-30T11:44:22;9.20;99.90
42187;DHT22;27858;51.414;0.018;2024-01-30T11:46:51;9.30;99.90
42187;DHT22;27858;51.414;0.018;2024-01-30T11:49:19;9.20;99.90
42187;DHT22;27858;51.414;0.018;2024-01-30T11:51:46;9.20;99.90
42187;DHT22;27858;51.414;0.018;2024-01-30T11:54:18;9.20;99.90
42187;DHT22;27858;51.414;0.018;2024-01-30T11:56:45;9.20;99.90
42187;DHT22;27858;51.414;0.018;2024-01-30T11:59:12;9.20;99.90
42187;DHT22;27858;51.414;0.018;2024-01-30T12:01:40;9.20;99.90
42187;DHT22;27858;51.414;0.018;2024-01-30T12:04:08;9.10;99.90
42187;DHT22;27858;51.414;0.018;2024-01-30T12:06:37;9.20;99.90
42187;DHT22;27858;51.414;0.018;2024-01-30T12:09:05;9.10;99.90
42187;DHT22;27858;51.414;0.018;2024-01-30T12:11:47;9.20;99.90
42187;DHT22;27858;51.414;0.018;2024-01-30T12:14:15;9.20;99.90
42187;DHT22;27858;51.414;0.018;2024-01-30T12:16:42;9.20;99.90
42187;DHT22;27858;51.414;0.018;2024-01-30T12:19:09;9.20;99.90
42187;DHT22;27858;51.414;0.018;2024-01-30T12:21:38;9.20;99.90
42187;DHT22;27858;51.414;0.018;2024-01-30T12:24:05;9.30;99.90
42187;DHT22;27858;51.414;0.018;2024-01-30T12:26:34;9.30;99.90
42187;DHT22;27858;51.414;0.018;2024-01-30T12:29:04;9.30;99.90
42187;DHT22;27858;51.414;0.018;2024-01-30T12:31:32;9.30;99.90
42187;DHT22;27858;51.414;0.018;2024-01-30T12:34:00;9.20;99.90
42187;DHT22;27858;51.414;0.018;2024-01-30T12:36:28;9.20;99.90
42187;DHT22;27858;51.414;0.018;2024-01-30T12:38:57;9.20;99.90
42187;DHT22;27858;51.414;0.018;2024-01-30T12:41:24;9.10;99.90
42187;DHT22;27858;51.414;0.018;2024-01-30T12:43:56;9.10;99.90
42187;DHT22;27858;51.414;0.018;2024-01-30T12:46:29;9.20;99.90
42187;DHT22;27858;51.414;0.018;2024-01-30T12:48:56;9.10;99.90
42187;DHT22;27858;51.414;0.018;2024-01-30T12:51:24;9.10;99.90
42187;DHT22;27858;51.414;0.018;2024-01-30T12:53:51;9.00;99.90
42187;DHT22;27858;51.414;0.018;2024-01-30T12:56:18;9.00;99.90
42187;DHT22;27858;51.414;0.018;2024-01-30T12:58:44;9.10;99.90
42187;DHT22;27858;51.414;0.018;2024-01-30T13:01:15;9.10;99.90
42187;DHT22;27858;51.414;0.018;2024-01-30T13:03:42;9.10;99.90
42187;DHT22;27858;51.414;0.018;2024-01-30T13:06:09;9.10;99.90
42187;DHT22;27858;51.414;0.018;2024-01-30T13:08:36;9.10;99.90
42187;DHT22;27858;51.414;0.018;2024-01-30T13:11:03;9.10;99.90
42187;DHT22;27858;51.414;0.018;2024-01-30T13:13:30;9.20;99.90
42187;DHT22;27858;51.414;0.018;2024-01-30T13:15:57;9.10;99.90
42187;DHT22;27858;51.414;0.018;2024-01-30T13:18:24;9.20;99.90
42187;DHT22;27858;51.414;0.018;2024-01-30T13:20:51;9.20;99.90
42187;DHT22;27858;51.414;0.018;2024-01-30T13:23:19;9.30;99.90
42187;DHT22;27858;51.414;0.018;2024-01-30T13:25:46;9.30;99.90
42187;DHT22;27858;51.414;0.018;2024-01-30T13:28:12;9.40;99.90
42187;DHT22;27858;51.414;0.018;2024-01-30T13:30:39;9.30;99.90
42187;DHT22;27858;51.414;0.018;2024-01-30T13:33:06;9.30;99.90
42187;DHT22;27858;51.414;0.018;2024-01-30T13:35:33;9.30;99.90
42187;DHT22;27858;51.414;0.018;2024-01-30T13:38:01;9.40;99.90
42187;DHT22;27858;51.414;0.018;2024-01-30T13:40:28;9.30;99.90
42187;DHT22;27858;51.414;0.018;2024-01-30T13:42:55;9.40;99.90
42187;DHT22;27858;51.414;0.018;2024-01-30T13:45:25;9.40;99.90
42187;DHT22;27858;51.414;0.018;2024-01-30T13:47:51;9.40;99.90
42187;DHT22;27858;51.414;0.018;2024-01-30T13:50:18;9.40;99.90
42187;DHT22;27858;51.414;0.018;2024-01-30T13:52:45;9.40;99.90
42187;DHT22;27858;51.414;0.018;2024-01-30T13:55:12;9.40;99.90
42187;DHT22;27858;51.414;0.018;2024-01-30T13:57:40;9.40;99.90
42187;DHT22;27858;51.414;0.018;2024-01-30T14:00:08;9.30;99.90
42187;DHT22;27858;51.414;0.018;2024-01-30T14:02:36;9.20;99.90
42187;DHT22;27858;51.414;0.018;2024-01-30T14:05:02;9.20;99.90
42187;DHT22;27858;51.414;0.018;2024-01-30T14:07:31;9.10;99.90
42187;DHT22;27858;51.414;0.018;2024-01-30T14:09:59;9.20;99.90
42187;DHT22;27858;51.414;0.018;2024-01-30T14:12:26;9.20;99.90
42187;DHT22;27858;51.414;0.018;2024-01-30T14:14:53;9.10;99.90
42187;DHT22;27858;51.414;0.018;2024-01-30T14:17:20;9.20;99.90
42187;DHT22;27858;51.414;0.018;2024-01-30T14:19:46;9.20;99.90
42187;DHT22;27858;51.414;0.018;2024-01-30T14:22:13;9.30;99.90
42187;DHT22;27858;51.414;0.018;2024-01-30T14:24:40;9.40;99.90
42187;DHT22;27858;51.414;0.018;2024-01-30T14:27:07;9.50;99.90
42187;DHT22;27858;51.414;0.018;2024-01-30T14:29:35;9.50;99.90
42187;DHT22;27858;51.414;0.018;2024-01-30T14:32:02;9.50;99.90
42187;DHT22;27858;51.414;0.018;2024-01-30T14:34:30;9.40;99.90
42187;DHT22;27858;51.414;0.018;2024-01-30T14:36:58;9.50;99.90
42187;DHT22;27858;51.414;0.018;2024-01-30T14:39:25;9.60;99.90
42187;DHT22;27858;51.414;0.018;2024-01-30T14:41:52;9.50;99.90
42187;DHT22;27858;51.414;0.018;2024-01-30T14:44:19;9.50;99.90
42187;DHT22;27858;51.414;0.018;2024-01-30T14:46:46;9.40;99.90
42187;DHT22;27858;51.414;0.018;2024-01-30T14:49:13;9.40;99.90
42187;DHT22;27858;51.414;0.018;2024-01-30T14:51:42;9.40;99.90
42187;DHT22;27858;51.414;0.018;2024-01-30T14:54:09;9.30;99.90
42187;DHT22;27858;51.414;0.018;2024-01-30T14:56:36;9.30;99.90
42187;DHT22;27858;51.414;0.018;2024-01-30T14:59:03;9.20;99.90
42187;DHT22;27858;51.414;0.018;2024-01-30T15:01:29;9.20;99.90
42187;DHT22;27858;51.414;0.018;2024-01-30T15:03:56;9.20;99.90
42187;DHT22;27858;51.414;0.018;2024-01-30T15:06:23;9.20;99.90
42187;DHT22;27858;51.414;0.018;2024-01-30T15:08:52;9.20;99.90
42187;DHT22;27858;51.414;0.018;2024-01-30T15:11:21;9.20;99.90
42187;DHT22;27858;51.414;0.018;2024-01-30T15:13:48;9.10;99.90
42187;DHT22;27858;51.414;0.018;2024-01-30T15:16:15;9.20;99.90
42187;DHT22;27858;51.414;0.018;2024-01-30T15:18:43;9.20;99.90
42187;DHT22;27858;51.414;0.018;2024-01-30T15:21:10;9.30;99.90
42187;DHT22;27858;51.414;0.018;2024-01-30T15:23:37;9.20;99.90
42187;DHT22;27858;51.414;0.018;2024-01-30T15:26:04;9.20;99.90
42187;DHT22;27858;51.414;0.018;2024-01-30T15:28:38;9.20;99.90
42187;DHT22;27858;51.414;0.018;2024-01-30T15:31:06;9.20;99.90
42187;DHT22;27858;51.414;0.018;2024-01-30T15:33:33;9.20;99.90
42187;DHT22;27858;51.414;0.018;2024-01-30T15:36:00;9.20;99.90
42187;DHT22;27858;51.414;0.018;2024-01-30T15:38:28;9.20;99.90
42187;DHT22;27858;51.414;0.018;2024-01-30T15:40:56;9.20;99.90
42187;DHT22;27858;51.414;0.018;2024-01-30T15:43:23;9.20;99.90